RYR4GT ESGG-EKBI
Flight info
| Callsign | RYR4GT |
|---|---|
| Flight time | 0h 33m |
| Altitude | 28000 |
| Route | VADIN DCT LOKSA |
| Aircraft | B738/M-SDE2E3FGHIRWXY/LB1 |
Departure
| Time | 2026-05-06 04:56 |
|---|---|
| Airport | Göteborg Landvetter Airport (ESGG) |
Arrival
| Time | 2026-05-06 05:30 |
|---|---|
| Airport | Billund Airport (EKBI) |
| Time | Latitude | Longitude | Altitude | Speed | Heading |
|---|---|---|---|---|---|
| 2026-05-06 04:27 | 57.66463 | 12.29061 | 515 ft | 0 kts | 116° |
| 2026-05-06 04:45 | 57.66471 | 12.29026 | 515 ft | 4 kts | 100° |
| 2026-05-06 04:45 | 57.66470 | 12.28978 | 515 ft | 4 kts | 65° |
| 2026-05-06 04:45 | 57.66455 | 12.28940 | 515 ft | 4 kts | 35° |
| 2026-05-06 04:45 | 57.66431 | 12.28916 | 515 ft | 4 kts | 20° |
| 2026-05-06 04:46 | 57.66406 | 12.28902 | 515 ft | 4 kts | 12° |
| 2026-05-06 04:46 | 57.66379 | 12.28894 | 515 ft | 4 kts | 7° |
| 2026-05-06 04:46 | 57.66352 | 12.28888 | 515 ft | 4 kts | 4° |
| 2026-05-06 04:46 | 57.66325 | 12.28885 | 515 ft | 4 kts | 5° |
| 2026-05-06 04:47 | 57.66299 | 12.28877 | 515 ft | 4 kts | 24° |
| 2026-05-06 04:47 | 57.66285 | 12.28865 | 515 ft | 4 kts | 112° |
| 2026-05-06 04:47 | 57.66298 | 12.28822 | 515 ft | 4 kts | 127° |
| 2026-05-06 04:47 | 57.66316 | 12.28786 | 515 ft | 4 kts | 146° |
| 2026-05-06 04:48 | 57.66340 | 12.28766 | 515 ft | 4 kts | 172° |
| 2026-05-06 04:48 | 57.66366 | 12.28767 | 515 ft | 4 kts | 195° |
| 2026-05-06 04:48 | 57.66391 | 12.28785 | 515 ft | 4 kts | 211° |
| 2026-05-06 04:48 | 57.66413 | 12.28814 | 515 ft | 4 kts | 221° |
| 2026-05-06 04:49 | 57.66432 | 12.28849 | 515 ft | 4 kts | 229° |
| 2026-05-06 04:49 | 57.66448 | 12.28889 | 515 ft | 4 kts | 244° |
| 2026-05-06 04:49 | 57.66454 | 12.28928 | 515 ft | 4 kts | 305° |
| 2026-05-06 04:49 | 57.66460 | 12.28939 | 515 ft | 0 kts | 26° |
| 2026-05-06 04:52 | 57.66461 | 12.28940 | 515 ft | 1 kts | 26° |
| 2026-05-06 04:52 | 57.66494 | 12.28967 | 515 ft | 8 kts | 13° |
| 2026-05-06 04:52 | 57.66550 | 12.28953 | 515 ft | 8 kts | 1° |
| 2026-05-06 04:52 | 57.66607 | 12.28958 | 515 ft | 9 kts | 322° |
| 2026-05-06 04:53 | 57.66645 | 12.28870 | 515 ft | 9 kts | 333° |
| 2026-05-06 04:53 | 57.66723 | 12.28895 | 515 ft | 16 kts | 27° |
| 2026-05-06 04:53 | 57.66842 | 12.29002 | 515 ft | 20 kts | 26° |
| 2026-05-06 04:53 | 57.66967 | 12.29117 | 515 ft | 20 kts | 26° |
| 2026-05-06 04:54 | 57.67089 | 12.29228 | 515 ft | 19 kts | 26° |
| 2026-05-06 04:54 | 57.67206 | 12.29334 | 515 ft | 18 kts | 26° |
| 2026-05-06 04:54 | 57.67319 | 12.29438 | 515 ft | 18 kts | 26° |
| 2026-05-06 04:54 | 57.67413 | 12.29451 | 515 ft | 14 kts | 315° |
| 2026-05-06 04:55 | 57.67455 | 12.29295 | 514 ft | 13 kts | 284° |
| 2026-05-06 04:55 | 57.67452 | 12.29126 | 513 ft | 14 kts | 253° |
| 2026-05-06 04:55 | 57.67376 | 12.28974 | 514 ft | 21 kts | 205° |
| 2026-05-06 04:55 | 57.67071 | 12.28697 | 513 ft | 83 kts | 206° |
| 2026-05-06 04:56 | 57.66348 | 12.28039 | 510 ft | 145 kts | 206° |
| 2026-05-06 04:56 | 57.65324 | 12.27078 | 797 ft | 170 kts | 206° |
| 2026-05-06 04:56 | 57.64287 | 12.26155 | 1686 ft | 168 kts | 202° |
| 2026-05-06 04:56 | 57.63227 | 12.25223 | 2394 ft | 174 kts | 202° |
| 2026-05-06 04:57 | 57.62058 | 12.24199 | 2628 ft | 197 kts | 204° |
| 2026-05-06 04:57 | 57.60720 | 12.23272 | 2801 ft | 215 kts | 185° |
| 2026-05-06 04:57 | 57.59171 | 12.23125 | 3018 ft | 230 kts | 182° |
| 2026-05-06 04:57 | 57.57544 | 12.22905 | 3445 ft | 237 kts | 184° |
| 2026-05-06 04:58 | 57.55896 | 12.22650 | 3972 ft | 239 kts | 184° |
| 2026-05-06 04:58 | 57.54235 | 12.22346 | 4506 ft | 241 kts | 186° |
| 2026-05-06 04:58 | 57.53123 | 12.22113 | 4822 ft | 246 kts | 186° |
| 2026-05-06 04:58 | 57.51356 | 12.21737 | 5148 ft | 262 kts | 187° |
| 2026-05-06 04:59 | 57.49524 | 12.21349 | 5752 ft | 267 kts | 187° |
| 2026-05-06 04:59 | 57.47667 | 12.20958 | 6459 ft | 270 kts | 188° |
| 2026-05-06 04:59 | 57.45793 | 12.20564 | 7144 ft | 272 kts | 188° |
| 2026-05-06 04:59 | 57.43388 | 12.19391 | 8040 ft | 272 kts | 216° |
| 2026-05-06 05:00 | 57.42403 | 12.17894 | 8549 ft | 271 kts | 225° |
| 2026-05-06 05:00 | 57.41058 | 12.15414 | 9295 ft | 273 kts | 227° |
| 2026-05-06 05:00 | 57.39742 | 12.12903 | 10034 ft | 275 kts | 227° |
| 2026-05-06 05:00 | 57.38381 | 12.10294 | 10413 ft | 292 kts | 227° |
| 2026-05-06 05:01 | 57.36916 | 12.07494 | 10583 ft | 313 kts | 227° |
| 2026-05-06 05:01 | 57.35343 | 12.04508 | 10783 ft | 332 kts | 227° |
| 2026-05-06 05:01 | 57.33722 | 12.01448 | 11298 ft | 338 kts | 227° |
| 2026-05-06 05:01 | 57.32060 | 11.98328 | 12008 ft | 340 kts | 227° |
| 2026-05-06 05:02 | 57.30387 | 11.95197 | 12687 ft | 344 kts | 227° |
| 2026-05-06 05:02 | 57.28699 | 11.92045 | 13439 ft | 346 kts | 228° |
| 2026-05-06 05:02 | 57.27005 | 11.88886 | 14168 ft | 347 kts | 228° |
| 2026-05-06 05:02 | 57.25300 | 11.85710 | 14866 ft | 349 kts | 228° |
| 2026-05-06 05:03 | 57.23587 | 11.82525 | 15565 ft | 351 kts | 228° |
| 2026-05-06 05:03 | 57.21863 | 11.79323 | 16261 ft | 353 kts | 228° |
| 2026-05-06 05:03 | 57.20148 | 11.76141 | 16938 ft | 355 kts | 228° |
| 2026-05-06 05:03 | 57.18397 | 11.72896 | 17614 ft | 358 kts | 228° |
| 2026-05-06 05:04 | 57.16632 | 11.69629 | 18281 ft | 360 kts | 228° |
| 2026-05-06 05:04 | 57.14858 | 11.66354 | 18862 ft | 362 kts | 228° |
| 2026-05-06 05:04 | 57.13054 | 11.63089 | 19476 ft | 364 kts | 226° |
| 2026-05-06 05:04 | 57.11171 | 11.59956 | 20053 ft | 365 kts | 225° |
| 2026-05-06 05:05 | 57.09249 | 11.56884 | 20682 ft | 366 kts | 224° |
| 2026-05-06 05:05 | 57.07316 | 11.53828 | 21262 ft | 367 kts | 224° |
| 2026-05-06 05:05 | 57.05394 | 11.50790 | 21796 ft | 369 kts | 224° |
| 2026-05-06 05:05 | 57.03443 | 11.47698 | 22346 ft | 371 kts | 224° |
| 2026-05-06 05:06 | 57.01489 | 11.44593 | 22920 ft | 372 kts | 224° |
| 2026-05-06 05:06 | 56.99544 | 11.41499 | 23642 ft | 368 kts | 224° |
| 2026-05-06 05:06 | 56.97623 | 11.38443 | 24313 ft | 363 kts | 224° |
| 2026-05-06 05:06 | 56.95731 | 11.35434 | 24970 ft | 358 kts | 224° |
| 2026-05-06 05:07 | 56.93854 | 11.32448 | 25573 ft | 356 kts | 224° |
| 2026-05-06 05:07 | 56.91984 | 11.29475 | 25615 ft | 354 kts | 224° |
| 2026-05-06 05:07 | 56.90184 | 11.26620 | 25559 ft | 340 kts | 224° |
| 2026-05-06 05:07 | 56.88435 | 11.23854 | 25549 ft | 325 kts | 224° |
| 2026-05-06 05:08 | 56.86760 | 11.21205 | 25502 ft | 312 kts | 224° |
| 2026-05-06 05:08 | 56.85131 | 11.18627 | 25545 ft | 310 kts | 224° |
| 2026-05-06 05:08 | 56.83489 | 11.16026 | 25553 ft | 313 kts | 224° |
| 2026-05-06 05:08 | 56.81840 | 11.13417 | 25560 ft | 315 kts | 224° |
| 2026-05-06 05:09 | 56.80181 | 11.10798 | 25560 ft | 316 kts | 224° |
| 2026-05-06 05:09 | 56.78511 | 11.08165 | 25560 ft | 316 kts | 224° |
| 2026-05-06 05:09 | 56.76845 | 11.05545 | 25557 ft | 316 kts | 224° |
| 2026-05-06 05:09 | 56.75178 | 11.02926 | 25553 ft | 316 kts | 224° |
| 2026-05-06 05:10 | 56.73515 | 11.00317 | 25551 ft | 315 kts | 224° |
| 2026-05-06 05:10 | 56.71875 | 10.97748 | 25550 ft | 314 kts | 224° |
| 2026-05-06 05:10 | 56.70219 | 10.95157 | 25550 ft | 313 kts | 224° |
| 2026-05-06 05:10 | 56.68567 | 10.92574 | 25550 ft | 312 kts | 224° |
| 2026-05-06 05:11 | 56.66921 | 10.90005 | 25550 ft | 312 kts | 224° |
| 2026-05-06 05:11 | 56.65272 | 10.87433 | 25550 ft | 311 kts | 224° |
| 2026-05-06 05:11 | 56.63628 | 10.84872 | 25523 ft | 311 kts | 223° |
| 2026-05-06 05:11 | 56.61965 | 10.82282 | 25095 ft | 322 kts | 223° |
| 2026-05-06 05:12 | 56.60241 | 10.79598 | 24475 ft | 329 kts | 223° |
| 2026-05-06 05:12 | 56.58512 | 10.76915 | 23899 ft | 332 kts | 223° |
| 2026-05-06 05:12 | 56.56729 | 10.74152 | 23378 ft | 333 kts | 223° |
| 2026-05-06 05:12 | 56.54992 | 10.71465 | 22830 ft | 332 kts | 223° |
| 2026-05-06 05:13 | 56.53233 | 10.68747 | 22292 ft | 332 kts | 223° |
| 2026-05-06 05:13 | 56.51471 | 10.66029 | 21753 ft | 332 kts | 223° |
| 2026-05-06 05:13 | 56.49717 | 10.63323 | 21243 ft | 332 kts | 223° |
| 2026-05-06 05:13 | 56.47961 | 10.60619 | 20728 ft | 332 kts | 223° |
| 2026-05-06 05:14 | 56.46200 | 10.57911 | 20222 ft | 332 kts | 223° |
| 2026-05-06 05:14 | 56.44440 | 10.55208 | 19727 ft | 332 kts | 223° |
| 2026-05-06 05:14 | 56.42702 | 10.52541 | 19244 ft | 332 kts | 223° |
| 2026-05-06 05:14 | 56.40921 | 10.49812 | 18759 ft | 332 kts | 223° |
| 2026-05-06 05:15 | 56.39180 | 10.47146 | 18265 ft | 332 kts | 223° |
| 2026-05-06 05:15 | 56.37418 | 10.44454 | 17724 ft | 332 kts | 223° |
| 2026-05-06 05:15 | 56.35651 | 10.41755 | 17188 ft | 332 kts | 223° |
| 2026-05-06 05:15 | 56.33881 | 10.39057 | 16657 ft | 332 kts | 223° |
| 2026-05-06 05:16 | 56.32135 | 10.36398 | 16170 ft | 332 kts | 223° |
| 2026-05-06 05:16 | 56.30367 | 10.33709 | 15651 ft | 332 kts | 223° |
| 2026-05-06 05:16 | 56.28595 | 10.31018 | 15147 ft | 332 kts | 223° |
| 2026-05-06 05:16 | 56.26843 | 10.28360 | 14660 ft | 332 kts | 222° |
| 2026-05-06 05:17 | 56.25071 | 10.25675 | 14176 ft | 332 kts | 222° |
| 2026-05-06 05:17 | 56.23299 | 10.22993 | 13688 ft | 332 kts | 222° |
| 2026-05-06 05:17 | 56.21525 | 10.20312 | 13150 ft | 332 kts | 222° |
| 2026-05-06 05:17 | 56.19780 | 10.17677 | 12623 ft | 332 kts | 222° |
| 2026-05-06 05:18 | 56.18013 | 10.15014 | 12095 ft | 332 kts | 222° |
| 2026-05-06 05:18 | 56.16246 | 10.12352 | 11585 ft | 331 kts | 221° |
| 2026-05-06 05:18 | 56.14480 | 10.09696 | 11073 ft | 331 kts | 221° |
| 2026-05-06 05:18 | 56.12728 | 10.07065 | 10708 ft | 327 kts | 221° |
| 2026-05-06 05:19 | 56.10995 | 10.04466 | 10344 ft | 323 kts | 221° |
| 2026-05-06 05:19 | 56.09279 | 10.01895 | 9979 ft | 320 kts | 221° |
| 2026-05-06 05:19 | 56.07580 | 9.99353 | 9610 ft | 313 kts | 221° |
| 2026-05-06 05:19 | 56.05930 | 9.96888 | 9217 ft | 304 kts | 221° |
| 2026-05-06 05:20 | 56.04320 | 9.94484 | 8831 ft | 297 kts | 221° |
| 2026-05-06 05:20 | 56.02753 | 9.92147 | 8453 ft | 290 kts | 221° |
| 2026-05-06 05:20 | 56.01236 | 9.89887 | 8080 ft | 285 kts | 221° |
| 2026-05-06 05:20 | 55.99708 | 9.87611 | 7725 ft | 285 kts | 221° |
| 2026-05-06 05:21 | 55.98182 | 9.85342 | 7386 ft | 284 kts | 221° |
| 2026-05-06 05:21 | 55.96665 | 9.83088 | 7082 ft | 283 kts | 221° |
| 2026-05-06 05:21 | 55.95154 | 9.80845 | 6780 ft | 281 kts | 221° |
| 2026-05-06 05:21 | 55.93670 | 9.78645 | 6491 ft | 280 kts | 221° |
| 2026-05-06 05:22 | 55.92174 | 9.76430 | 6177 ft | 279 kts | 220° |
| 2026-05-06 05:22 | 55.90683 | 9.74224 | 5854 ft | 278 kts | 221° |
| 2026-05-06 05:22 | 55.89195 | 9.72025 | 5535 ft | 277 kts | 221° |
| 2026-05-06 05:22 | 55.87715 | 9.69841 | 5226 ft | 274 kts | 220° |
| 2026-05-06 05:23 | 55.86275 | 9.67720 | 4957 ft | 261 kts | 221° |
| 2026-05-06 05:23 | 55.84910 | 9.65708 | 4624 ft | 249 kts | 221° |
| 2026-05-06 05:23 | 55.82356 | 9.61949 | 4052 ft | 232 kts | 221° |
| 2026-05-06 05:24 | 55.81132 | 9.60148 | 3831 ft | 223 kts | 221° |
| 2026-05-06 05:24 | 55.79958 | 9.58423 | 3605 ft | 215 kts | 221° |
| 2026-05-06 05:24 | 55.78821 | 9.56756 | 3368 ft | 208 kts | 221° |
| 2026-05-06 05:24 | 55.77736 | 9.55167 | 3225 ft | 197 kts | 221° |
| 2026-05-06 05:25 | 55.76690 | 9.53636 | 3107 ft | 197 kts | 220° |
| 2026-05-06 05:25 | 55.75641 | 9.52018 | 3022 ft | 199 kts | 230° |
| 2026-05-06 05:25 | 55.75176 | 9.49869 | 2999 ft | 186 kts | 272° |
| 2026-05-06 05:25 | 55.75134 | 9.47538 | 2993 ft | 188 kts | 267° |
| 2026-05-06 05:26 | 55.75020 | 9.45257 | 3003 ft | 189 kts | 268° |
| 2026-05-06 05:26 | 55.74928 | 9.42932 | 2990 ft | 188 kts | 269° |
| 2026-05-06 05:26 | 55.74847 | 9.40595 | 2836 ft | 190 kts | 269° |
| 2026-05-06 05:26 | 55.74769 | 9.38254 | 2585 ft | 189 kts | 269° |
| 2026-05-06 05:27 | 55.74693 | 9.35923 | 2333 ft | 189 kts | 268° |
| 2026-05-06 05:27 | 55.74618 | 9.33639 | 2105 ft | 177 kts | 268° |
| 2026-05-06 05:27 | 55.74549 | 9.31531 | 1828 ft | 166 kts | 268° |
| 2026-05-06 05:27 | 55.74482 | 9.29514 | 1613 ft | 162 kts | 268° |
| 2026-05-06 05:28 | 55.74416 | 9.27514 | 1403 ft | 163 kts | 268° |
| 2026-05-06 05:28 | 55.74347 | 9.25534 | 1161 ft | 163 kts | 268° |
| 2026-05-06 05:28 | 55.74291 | 9.23515 | 906 ft | 160 kts | 269° |
| 2026-05-06 05:28 | 55.74232 | 9.21614 | 709 ft | 155 kts | 268° |
| 2026-05-06 05:29 | 55.74169 | 9.19690 | 507 ft | 157 kts | 268° |
| 2026-05-06 05:29 | 55.74109 | 9.17752 | 253 ft | 154 kts | 268° |
| 2026-05-06 05:29 | 55.74060 | 9.15996 | 216 ft | 127 kts | 267° |
| 2026-05-06 05:29 | 55.74019 | 9.14701 | 218 ft | 83 kts | 267° |
| 2026-05-06 05:30 | 55.73996 | 9.13941 | 215 ft | 39 kts | 266° |
| 2026-05-06 05:30 | 55.73985 | 9.13586 | 215 ft | 20 kts | 267° |
| 2026-05-06 05:30 | 55.73981 | 9.13474 | 215 ft | 0 kts | 266° |